Time;durP1;ratioP1;P1;durP2;ratioP2;P2;SDS_P1;SDS_P2;PMS_P1;PMS_P2;Temp;Humidity;BMP_temperature;BMP_pressure;BME280_temperature;BME280_humidity;BME280_pressure;Samples;Min_cycle;Max_cycle;Signal;HPM_P1;HPM_P2
2021/10/08 00:01:01;;;;;;;9.93;5.55;;;;;;;;;;4973073;28;20556;-66
2021/10/08 00:03:27;;;;;;;10.45;5.55;;;;;;;;;;4972881;28;20105;-66
2021/10/08 00:05:54;;;;;;;8.45;6.10;;;;;;;;;;4972850;28;20055;-67
2021/10/08 00:08:21;;;;;;;8.23;5.78;;;;;;;;;;4972735;28;20134;-68
2021/10/08 00:10:47;;;;;;;6.68;5.13;;;;;;;;;;4972343;28;20058;-67
2021/10/08 00:13:14;;;;;;;5.82;5.32;;;;;;;;;;4972685;28;20059;-68
2021/10/08 00:15:40;;;;;;;7.45;5.47;;;;;;;;;;4972823;28;20501;-68
2021/10/08 00:18:07;;;;;;;7.20;5.20;;;;;;;;;;4972962;28;20053;-68
2021/10/08 00:20:34;;;;;;;9.05;5.88;;;;;;;;;;4972779;28;20113;-68
2021/10/08 00:23:02;;;;;;;7.10;5.97;;;;;;;;;;4972734;28;20050;-68
2021/10/08 00:25:29;;;;;;;7.00;5.97;;;;;;;;;;4961197;28;20122;-68
2021/10/08 00:27:55;;;;;;;7.80;5.85;;;;;;;;;;4953458;29;20055;-68
2021/10/08 00:30:24;;;;;;;36.78;17.88;;;;;;;;;;4953492;29;20082;-68
2021/10/08 00:32:50;;;;;;;20.50;12.43;;;;;;;;;;4953279;29;20052;-69
2021/10/08 00:35:18;;;;;;;9.88;7.38;;;;;;;;;;4953417;29;20051;-69
2021/10/08 00:37:44;;;;;;;7.85;6.10;;;;;;;;;;4953417;29;20059;-68
2021/10/08 00:40:11;;;;;;;8.43;6.60;;;;;;;;;;4953432;29;20147;-68
2021/10/08 00:42:38;;;;;;;7.03;6.32;;;;;;;;;;4953342;29;20051;-68
2021/10/08 00:45:05;;;;;;;7.13;6.38;;;;;;;;;;4936469;29;20059;-68
2021/10/08 00:47:32;;;;;;;8.43;7.57;;;;;;;;;;4953036;29;20498;-68
2021/10/08 00:49:58;;;;;;;9.25;6.88;;;;;;;;;;4953522;29;20094;-68
2021/10/08 00:52:25;;;;;;;9.23;7.32;;;;;;;;;;4963130;28;20399;-68
2021/10/08 00:54:52;;;;;;;9.02;7.78;;;;;;;;;;4972592;28;20054;-66
2021/10/08 00:57:18;;;;;;;10.10;7.25;;;;;;;;;;4972460;28;20050;-67
2021/10/08 00:59:45;;;;;;;8.88;6.95;;;;;;;;;;4972588;28;20461;-67
2021/10/08 01:02:11;;;;;;;10.38;7.30;;;;;;;;;;4955181;28;20051;-68
2021/10/08 01:04:38;;;;;;;9.15;7.88;;;;;;;;;;4972308;28;20058;-68
2021/10/08 01:07:05;;;;;;;10.00;7.55;;;;;;;;;;4972277;28;20051;-67
2021/10/08 01:09:31;;;;;;;8.15;7.32;;;;;;;;;;4972168;28;20049;-67
2021/10/08 01:11:58;;;;;;;12.88;7.88;;;;;;;;;;4972337;28;20113;-68
2021/10/08 01:14:24;;;;;;;11.77;7.75;;;;;;;;;;4972517;28;20486;-67
2021/10/08 01:16:51;;;;;;;9.43;7.57;;;;;;;;;;4972346;28;20046;-67
2021/10/08 01:19:18;;;;;;;14.10;8.73;;;;;;;;;;4968610;28;20117;-67
2021/10/08 01:21:45;;;;;;;8.82;7.57;;;;;;;;;;4974109;28;20506;-67
2021/10/08 01:24:12;;;;;;;12.35;8.30;;;;;;;;;;4976031;28;20054;-67
2021/10/08 01:26:38;;;;;;;9.73;8.70;;;;;;;;;;4975637;28;20054;-68
2021/10/08 01:29:09;;;;;;;9.55;8.30;;;;;;;;;;4975981;28;20046;-67
2021/10/08 01:31:36;;;;;;;12.82;9.38;;;;;;;;;;4975300;28;20058;-67
2021/10/08 01:34:03;;;;;;;9.77;7.70;;;;;;;;;;4958574;28;20498;-67
2021/10/08 01:36:30;;;;;;;10.98;8.30;;;;;;;;;;4975354;28;20110;-67
2021/10/08 01:38:56;;;;;;;12.25;7.40;;;;;;;;;;4958534;28;20398;-67
2021/10/08 01:41:23;;;;;;;9.73;7.30;;;;;;;;;;4974746;28;20395;-67
2021/10/08 01:43:50;;;;;;;11.30;8.27;;;;;;;;;;4957071;28;20055;-68
2021/10/08 01:46:16;;;;;;;11.88;7.95;;;;;;;;;;4955915;29;20058;-68
2021/10/08 01:48:44;;;;;;;10.57;8.57;;;;;;;;;;4956015;29;20506;-67
2021/10/08 01:51:11;;;;;;;12.68;9.63;;;;;;;;;;4956278;29;20055;-67
2021/10/08 01:53:37;;;;;;;9.73;8.20;;;;;;;;;;4960257;28;20054;-67
2021/10/08 01:56:04;;;;;;;10.88;8.50;;;;;;;;;;4960778;28;20063;-67
2021/10/08 01:58:31;;;;;;;13.10;8.80;;;;;;;;;;4955805;29;20043;-67
2021/10/08 02:00:57;;;;;;;10.30;8.82;;;;;;;;;;4955916;29;20423;-67
2021/10/08 02:03:24;;;;;;;12.27;8.82;;;;;;;;;;4955572;29;20059;-67
2021/10/08 02:09:37;;;;;;;10.85;9.57;;;;;;;;;;4955695;29;20287;-67
2021/10/08 02:12:04;;;;;;;12.32;9.65;;;;;;;;;;4955598;29;20055;-68
2021/10/08 02:14:31;;;;;;;12.85;9.50;;;;;;;;;;4955517;29;20051;-68
2021/10/08 02:16:57;;;;;;;13.18;9.80;;;;;;;;;;4955588;29;20059;-67
2021/10/08 02:19:24;;;;;;;13.38;9.27;;;;;;;;;;4969158;28;20102;-67
2021/10/08 02:21:51;;;;;;;14.05;9.40;;;;;;;;;;4974559;28;20548;-67
2021/10/08 02:24:17;;;;;;;13.05;9.30;;;;;;;;;;4974742;28;20050;-68
2021/10/08 02:26:44;;;;;;;11.80;9.48;;;;;;;;;;4974731;28;20113;-67
2021/10/08 02:29:10;;;;;;;15.32;9.10;;;;;;;;;;4974533;28;20046;-67
2021/10/08 02:31:37;;;;;;;10.93;9.07;;;;;;;;;;4974163;28;20055;-67
2021/10/08 02:34:04;;;;;;;11.55;8.98;;;;;;;;;;4974509;28;20149;-69
2021/10/08 02:36:31;;;;;;;11.57;9.45;;;;;;;;;;4974429;28;20077;-68
2021/10/08 02:38:58;;;;;;;12.98;10.00;;;;;;;;;;4974543;28;20051;-68
2021/10/08 02:41:24;;;;;;;11.65;9.45;;;;;;;;;;4957021;28;20058;-68
2021/10/08 02:43:51;;;;;;;15.15;11.40;;;;;;;;;;4974619;28;20102;-68
2021/10/08 02:46:17;;;;;;;10.85;9.70;;;;;;;;;;4971785;28;20573;-67
2021/10/08 02:48:44;;;;;;;12.20;9.93;;;;;;;;;;4974130;28;20047;-67
2021/10/08 02:51:11;;;;;;;12.27;9.82;;;;;;;;;;4974359;28;20050;-67
2021/10/08 02:53:37;;;;;;;10.68;9.07;;;;;;;;;;4974267;28;20113;-68
2021/10/08 02:56:04;;;;;;;13.50;10.15;;;;;;;;;;4971647;28;20059;-67
2021/10/08 02:58:31;;;;;;;13.50;10.25;;;;;;;;;;4954882;29;20462;-67
2021/10/08 03:00:57;;;;;;;11.27;9.32;;;;;;;;;;4954777;29;20074;-68
2021/10/08 03:03:24;;;;;;;11.95;9.55;;;;;;;;;;4954436;29;20542;-67
2021/10/08 03:05:51;;;;;;;13.25;10.27;;;;;;;;;;4954778;28;20117;-67
2021/10/08 03:08:17;;;;;;;12.07;10.18;;;;;;;;;;4974006;28;20517;-67
2021/10/08 03:10:44;;;;;;;14.30;9.88;;;;;;;;;;4973974;28;20106;-67
2021/10/08 03:13:10;;;;;;;14.88;10.57;;;;;;;;;;4973634;28;20458;-68
2021/10/08 03:15:37;;;;;;;12.45;9.60;;;;;;;;;;4973726;28;20057;-67
2021/10/08 03:18:04;;;;;;;11.10;8.93;;;;;;;;;;4973730;28;20084;-66
2021/10/08 03:20:32;;;;;;;12.25;9.85;;;;;;;;;;4973698;28;20490;-68
2021/10/08 03:22:58;;;;;;;11.75;10.25;;;;;;;;;;4973362;28;20053;-67
2021/10/08 03:25:25;;;;;;;14.32;10.23;;;;;;;;;;4973604;28;20051;-67
2021/10/08 03:27:52;;;;;;;10.77;9.45;;;;;;;;;;4956715;28;20499;-67
2021/10/08 03:30:18;;;;;;;15.80;10.70;;;;;;;;;;4954010;29;20486;-67
2021/10/08 03:32:45;;;;;;;13.07;9.70;;;;;;;;;;4954144;29;20051;-67
2021/10/08 03:35:12;;;;;;;13.98;10.50;;;;;;;;;;4954144;29;20495;-67
2021/10/08 03:37:51;;;;;;;13.32;10.38;;;;;;;;;;4954160;29;20051;-67
2021/10/08 03:40:27;;;;;;;14.80;10.57;;;;;;;;;;4954039;29;20047;-68
2021/10/08 03:42:55;;;;;;;15.60;11.45;;;;;;;;;;4953898;28;20067;-68
2021/10/08 03:45:23;;;;;;;12.10;10.43;;;;;;;;;;4953478;29;20102;-66
2021/10/08 03:48:03;;;;;;;13.50;10.90;;;;;;;;;;4954024;29;20051;-67
2021/10/08 03:50:30;;;;;;;15.10;10.82;;;;;;;;;;4953815;29;20051;-67
2021/10/08 03:52:57;;;;;;;13.88;10.77;;;;;;;;;;4936713;29;20494;-68
2021/10/08 03:55:24;;;;;;;15.50;11.25;;;;;;;;;;4936754;29;20113;-67
2021/10/08 03:57:50;;;;;;;16.50;11.38;;;;;;;;;;4968809;28;20055;-67
2021/10/08 04:00:17;;;;;;;15.07;11.10;;;;;;;;;;4972992;28;20098;-67
2021/10/08 04:02:44;;;;;;;14.45;10.88;;;;;;;;;;4973053;28;20055;-67
2021/10/08 04:05:10;;;;;;;12.90;10.07;;;;;;;;;;4972998;28;20054;-67
2021/10/08 04:07:37;;;;;;;15.02;10.60;;;;;;;;;;4993460;23;20497;-69
2021/10/08 04:10:04;;;;;;;14.68;9.93;;;;;;;;;;4973089;28;20046;-69
2021/10/08 04:12:31;;;;;;;14.18;10.38;;;;;;;;;;4972604;28;20461;-69
2021/10/08 04:14:57;;;;;;;14.95;9.98;;;;;;;;;;4973164;28;20109;-70
2021/10/08 04:17:24;;;;;;;12.77;9.48;;;;;;;;;;4962154;28;20106;-69
2021/10/08 04:19:50;;;;;;;12.93;10.15;;;;;;;;;;4953670;29;20098;-69
2021/10/08 04:22:17;;;;;;;14.15;10.30;;;;;;;;;;4953301;29;20047;-69
2021/10/08 04:24:44;;;;;;;13.35;9.88;;;;;;;;;;4953852;29;20051;-69
2021/10/08 04:27:10;;;;;;;12.52;9.75;;;;;;;;;;4961901;28;20051;-69
2021/10/08 04:29:37;;;;;;;11.98;10.23;;;;;;;;;;4972830;28;20113;-70
2021/10/08 04:32:04;;;;;;;12.38;9.70;;;;;;;;;;4972658;28;20109;-70
2021/10/08 04:34:30;;;;;;;15.43;10.63;;;;;;;;;;4972844;28;20055;-70
2021/10/08 04:36:57;;;;;;;12.40;10.35;;;;;;;;;;4966172;28;20126;-69
2021/10/08 04:39:23;;;;;;;15.65;10.82;;;;;;;;;;4953375;29;20466;-69
2021/10/08 04:41:50;;;;;;;14.95;10.38;;;;;;;;;;4953339;29;20051;-69
2021/10/08 04:44:17;;;;;;;14.98;11.20;;;;;;;;;;4953262;29;20098;-69
2021/10/08 04:46:43;;;;;;;15.90;11.27;;;;;;;;;;4953513;29;20483;-69
2021/10/08 04:49:10;;;;;;;14.85;11.23;;;;;;;;;;4953196;29;20047;-70
2021/10/08 04:51:36;;;;;;;16.48;12.57;;;;;;;;;;4953123;29;20055;-69
2021/10/08 04:54:03;;;;;;;19.77;13.95;;;;;;;;;;4953297;29;20102;-70
2021/10/08 04:56:33;;;;;;;15.68;13.00;;;;;;;;;;4955123;28;20059;-70
2021/10/08 04:59:00;;;;;;;20.73;15.15;;;;;;;;;;4957042;29;20062;-70
2021/10/08 05:01:27;;;;;;;18.40;14.35;;;;;;;;;;4956314;29;20043;-70
2021/10/08 05:03:55;;;;;;;21.83;14.07;;;;;;;;;;4956999;29;20055;-70
2021/10/08 05:06:22;;;;;;;19.05;13.90;;;;;;;;;;4957958;28;20054;-70
2021/10/08 05:08:48;;;;;;;17.27;13.02;;;;;;;;;;4976317;28;20062;-70
2021/10/08 05:11:16;;;;;;;15.43;12.20;;;;;;;;;;4975891;28;20125;-70
2021/10/08 05:13:42;;;;;;;14.52;11.85;;;;;;;;;;4976199;28;20050;-71
2021/10/08 05:16:09;;;;;;;14.90;11.05;;;;;;;;;;4975801;28;20548;-70
2021/10/08 05:18:36;;;;;;;13.52;11.40;;;;;;;;;;4975939;28;20046;-71
2021/10/08 05:21:02;;;;;;;13.13;10.10;;;;;;;;;;4975852;28;20050;-70
2021/10/08 05:23:29;;;;;;;13.00;10.55;;;;;;;;;;4975733;28;20089;-71
2021/10/08 05:25:55;;;;;;;13.00;10.57;;;;;;;;;;4975946;28;20050;-70
2021/10/08 05:28:22;;;;;;;12.48;10.75;;;;;;;;;;4976039;28;20054;-69
2021/10/08 05:30:49;;;;;;;13.98;9.98;;;;;;;;;;4974894;28;20047;-69
2021/10/08 05:33:15;;;;;;;11.30;10.00;;;;;;;;;;4975388;28;20106;-69
2021/10/08 05:35:42;;;;;;;12.40;9.77;;;;;;;;;;4975491;28;20042;-68
2021/10/08 05:38:09;;;;;;;11.85;9.65;;;;;;;;;;4975527;28;20101;-68
2021/10/08 05:40:35;;;;;;;11.52;9.32;;;;;;;;;;4975618;28;20055;-69
2021/10/08 05:43:02;;;;;;;14.40;9.88;;;;;;;;;;4975401;28;20054;-68
2021/10/08 05:45:29;;;;;;;13.88;11.18;;;;;;;;;;4975467;28;20058;-69
2021/10/08 05:47:56;;;;;;;14.90;10.00;;;;;;;;;;4975350;28;20469;-68
2021/10/08 05:50:23;;;;;;;13.20;10.45;;;;;;;;;;4975322;28;20043;-69
2021/10/08 05:52:50;;;;;;;13.93;10.10;;;;;;;;;;4975318;28;20109;-68
2021/10/08 05:55:16;;;;;;;14.85;11.70;;;;;;;;;;4968845;28;20043;-69
2021/10/08 05:57:43;;;;;;;12.93;10.60;;;;;;;;;;4956059;29;20123;-68
2021/10/08 06:00:10;;;;;;;13.52;10.63;;;;;;;;;;4956002;29;20043;-69
2021/10/08 06:02:37;;;;;;;15.85;10.93;;;;;;;;;;4955756;29;20055;-70
2021/10/08 06:05:04;;;;;;;14.45;10.20;;;;;;;;;;4955592;29;20055;-70
2021/10/08 06:07:30;;;;;;;14.52;10.30;;;;;;;;;;4954551;28;20055;-75
2021/10/08 06:09:57;;;;;;;14.00;11.00;;;;;;;;;;4955170;29;20454;-69
2021/10/08 06:12:23;;;;;;;12.73;11.05;;;;;;;;;;4955526;28;20051;-68
2021/10/08 06:14:50;;;;;;;17.27;12.23;;;;;;;;;;4954940;28;20102;-68
2021/10/08 06:17:17;;;;;;;17.27;12.77;;;;;;;;;;4954893;29;20502;-69
2021/10/08 06:19:43;;;;;;;18.52;12.75;;;;;;;;;;4955356;29;20059;-69
2021/10/08 06:22:10;;;;;;;18.45;13.90;;;;;;;;;;4955310;29;20051;-69
2021/10/08 06:24:36;;;;;;;23.08;15.15;;;;;;;;;;4955548;28;20117;-69
2021/10/08 06:27:03;;;;;;;22.35;14.18;;;;;;;;;;4955236;29;20055;-69
2021/10/08 06:29:30;;;;;;;18.95;14.13;;;;;;;;;;4954283;29;20442;-69
2021/10/08 06:31:56;;;;;;;20.15;14.43;;;;;;;;;;4955312;28;20055;-70
2021/10/08 06:34:23;;;;;;;23.35;14.32;;;;;;;;;;4954713;28;20055;-70
2021/10/08 06:36:50;;;;;;;18.38;13.98;;;;;;;;;;4954934;29;20055;-70
2021/10/08 06:39:16;;;;;;;21.50;14.23;;;;;;;;;;4955197;29;20059;-69
2021/10/08 06:41:43;;;;;;;21.15;14.90;;;;;;;;;;4954961;29;20130;-69
2021/10/08 06:44:09;;;;;;;22.77;15.75;;;;;;;;;;4955409;28;20051;-69
2021/10/08 06:46:36;;;;;;;22.40;15.95;;;;;;;;;;4954992;29;20690;-69
2021/10/08 06:49:03;;;;;;;21.60;16.13;;;;;;;;;;4954581;29;20055;-69
2021/10/08 06:51:29;;;;;;;21.67;14.60;;;;;;;;;;4954685;29;20051;-69
2021/10/08 06:53:56;;;;;;;21.88;15.75;;;;;;;;;;4955121;29;20078;-70
2021/10/08 06:56:24;;;;;;;22.23;15.82;;;;;;;;;;4953998;28;20102;-70
2021/10/08 06:58:52;;;;;;;23.00;16.25;;;;;;;;;;4951975;28;20166;-68
2021/10/08 07:01:20;;;;;;;22.60;16.40;;;;;;;;;;4947085;28;20047;-72
2021/10/08 07:03:47;;;;;;;20.50;15.60;;;;;;;;;;4947137;28;20056;-71
2021/10/08 07:06:14;;;;;;;20.88;16.13;;;;;;;;;;4942028;29;20110;-71
2021/10/08 07:08:42;;;;;;;25.27;16.65;;;;;;;;;;4928174;29;20051;-71
2021/10/08 07:11:08;;;;;;;21.58;15.15;;;;;;;;;;4945558;29;20131;-71
2021/10/08 07:13:35;;;;;;;20.83;14.82;;;;;;;;;;4939078;29;20455;-71
2021/10/08 07:16:05;;;;;;;19.17;14.23;;;;;;;;;;4936383;29;20052;-71
2021/10/08 07:18:50;;;;;;;18.67;15.02;;;;;;;;;;4933427;29;20051;-71
2021/10/08 07:21:17;;;;;;;19.90;15.60;;;;;;;;;;4942226;29;20043;-71
2021/10/08 07:23:45;;;;;;;22.10;15.25;;;;;;;;;;4922920;29;20052;-72
2021/10/08 07:26:14;;;;;;;19.95;15.52;;;;;;;;;;4941379;29;20078;-71
2021/10/08 07:28:41;;;;;;;19.05;15.02;;;;;;;;;;4943401;29;20058;-71
2021/10/08 07:31:09;;;;;;;23.35;16.15;;;;;;;;;;4945756;29;20040;-72
2021/10/08 07:33:40;;;;;;;21.75;15.20;;;;;;;;;;4941558;29;20134;-71
2021/10/08 07:36:08;;;;;;;18.60;15.38;;;;;;;;;;4939095;29;20051;-70
2021/10/08 07:38:34;;;;;;;18.20;15.02;;;;;;;;;;4938725;29;20589;-71
2021/10/08 07:41:01;;;;;;;16.38;13.85;;;;;;;;;;4939138;29;20117;-71
2021/10/08 07:43:28;;;;;;;17.95;14.23;;;;;;;;;;4942805;29;20499;-73
2021/10/08 07:45:54;;;;;;;17.17;14.23;;;;;;;;;;4941010;28;20526;-72
2021/10/08 07:48:21;;;;;;;17.77;14.30;;;;;;;;;;4945199;29;20094;-71
2021/10/08 07:50:47;;;;;;;18.95;15.18;;;;;;;;;;4941688;29;20051;-71
2021/10/08 07:53:14;;;;;;;17.63;14.13;;;;;;;;;;4940550;29;20051;-73
2021/10/08 07:55:41;;;;;;;17.67;14.32;;;;;;;;;;4943604;28;20130;-73
2021/10/08 07:58:08;;;;;;;17.05;12.98;;;;;;;;;;4941768;29;20098;-77
2021/10/08 08:00:38;;;;;;;17.50;12.50;;;;;;;;;;4942828;29;20070;-73
2021/10/08 08:03:05;;;;;;;17.70;13.50;;;;;;;;;;4940316;29;20062;-71
2021/10/08 08:05:31;;;;;;;15.60;13.38;;;;;;;;;;4943721;28;20110;-68
2021/10/08 08:07:58;;;;;;;15.32;13.20;;;;;;;;;;4942755;29;20054;-74
2021/10/08 08:10:25;;;;;;;15.60;13.75;;;;;;;;;;4939585;29;20054;-69
2021/10/08 08:12:51;;;;;;;17.63;13.30;;;;;;;;;;4941382;29;20063;-70
2021/10/08 08:15:19;;;;;;;15.40;12.27;;;;;;;;;;4941139;28;20058;-70
2021/10/08 08:17:45;;;;;;;14.43;11.57;;;;;;;;;;4941201;29;20102;-69
2021/10/08 08:20:12;;;;;;;14.32;11.45;;;;;;;;;;4941053;29;20450;-68
2021/10/08 08:22:39;;;;;;;15.25;11.15;;;;;;;;;;4940341;29;20098;-69
2021/10/08 08:25:06;;;;;;;13.65;11.55;;;;;;;;;;4942670;28;20056;-69
2021/10/08 08:27:33;;;;;;;12.75;10.90;;;;;;;;;;4941326;29;20052;-68
2021/10/08 08:30:02;;;;;;;13.38;10.05;;;;;;;;;;4940268;29;20426;-68
2021/10/08 08:32:31;;;;;;;16.73;10.57;;;;;;;;;;4943394;29;20055;-68
2021/10/08 08:34:59;;;;;;;12.02;10.23;;;;;;;;;;4943064;29;20063;-68
2021/10/08 08:37:26;;;;;;;13.25;9.73;;;;;;;;;;4946046;29;20470;-68
2021/10/08 08:39:52;;;;;;;11.32;10.23;;;;;;;;;;4943826;29;20099;-68
2021/10/08 08:42:20;;;;;;;12.32;8.50;;;;;;;;;;4945564;29;20047;-68
2021/10/08 08:44:47;;;;;;;11.32;9.18;;;;;;;;;;4949942;28;20451;-68
2021/10/08 08:47:18;;;;;;;18.17;10.70;;;;;;;;;;4943531;29;20060;-68
2021/10/08 08:49:45;;;;;;;28.17;14.02;;;;;;;;;;4945305;29;20463;-68
2021/10/08 08:52:13;;;;;;;22.58;10.73;;;;;;;;;;4942478;29;20503;-71
2021/10/08 08:54:41;;;;;;;12.52;9.38;;;;;;;;;;4944828;29;20562;-72
2021/10/08 08:57:25;;;;;;;12.27;9.52;;;;;;;;;;4944809;29;20352;-72
2021/10/08 09:00:05;;;;;;;10.57;8.60;;;;;;;;;;4945797;29;20192;-72
2021/10/08 09:02:33;;;;;;;12.07;9.48;;;;;;;;;;4928626;29;20495;-71
2021/10/08 09:05:00;;;;;;;8.32;7.38;;;;;;;;;;4943215;29;20058;-71
2021/10/08 09:07:31;;;;;;;13.85;9.00;;;;;;;;;;4943779;29;20442;-71
2021/10/08 09:10:19;;;;;;;12.18;7.93;;;;;;;;;;4944221;29;20098;-71
2021/10/08 09:12:47;;;;;;;10.63;8.55;;;;;;;;;;4943112;29;20079;-71
2021/10/08 09:15:16;;;;;;;9.50;7.90;;;;;;;;;;4943770;29;20278;-71
2021/10/08 09:17:43;;;;;;;13.40;8.70;;;;;;;;;;4943899;29;20051;-71
2021/10/08 09:20:18;;;;;;;12.27;7.95;;;;;;;;;;4943036;29;20063;-71
2021/10/08 09:22:51;;;;;;;11.13;7.38;;;;;;;;;;4947514;29;20047;-71
2021/10/08 09:25:23;;;;;;;9.45;7.00;;;;;;;;;;4926382;29;20048;-71
2021/10/08 09:27:51;;;;;;;10.68;7.57;;;;;;;;;;4942944;29;20111;-71
2021/10/08 09:30:18;;;;;;;8.82;7.90;;;;;;;;;;4943900;29;20106;-71
2021/10/08 09:32:50;;;;;;;8.10;7.03;;;;;;;;;;4942368;29;20048;-71
2021/10/08 09:35:19;;;;;;;8.85;7.18;;;;;;;;;;4948980;28;20515;-71
2021/10/08 09:38:16;;;;;;;11.80;7.25;;;;;;;;;;4942476;29;20055;-71
2021/10/08 09:40:51;;;;;;;10.13;7.45;;;;;;;;;;4943861;29;20043;-71
2021/10/08 09:43:25;;;;;;;9.88;7.95;;;;;;;;;;4944237;29;20557;-71
2021/10/08 09:45:55;;;;;;;10.55;7.18;;;;;;;;;;4944462;29;20427;-71
2021/10/08 09:48:34;;;;;;;10.43;7.10;;;;;;;;;;4942129;29;20463;-71
2021/10/08 09:51:09;;;;;;;9.70;7.00;;;;;;;;;;4945240;29;20465;-71
2021/10/08 09:53:38;;;;;;;9.35;6.93;;;;;;;;;;4946373;29;20052;-71
2021/10/08 09:56:40;;;;;;;8.85;7.13;;;;;;;;;;4925183;29;20051;-71
2021/10/08 09:59:12;;;;;;;9.88;6.50;;;;;;;;;;4942356;29;20056;-71
2021/10/08 10:01:40;;;;;;;8.75;6.85;;;;;;;;;;4944741;29;20107;-71
2021/10/08 10:04:09;;;;;;;8.50;6.90;;;;;;;;;;4943303;29;20043;-72
2021/10/08 10:06:37;;;;;;;9.40;7.20;;;;;;;;;;4972878;23;20055;-67
2021/10/08 10:09:07;;;;;;;10.05;6.93;;;;;;;;;;4930631;28;20512;-67
2021/10/08 10:11:34;;;;;;;12.25;6.78;;;;;;;;;;4959570;28;20497;-67
2021/10/08 10:14:02;;;;;;;8.75;6.30;;;;;;;;;;4962737;28;20054;-67
2021/10/08 10:16:31;;;;;;;6.88;5.78;;;;;;;;;;4957837;28;20528;-71
2021/10/08 10:18:59;;;;;;;10.05;7.47;;;;;;;;;;4935746;29;20143;-65
2021/10/08 10:21:31;;;;;;;9.30;6.97;;;;;;;;;;4914066;29;20530;-66
2021/10/08 10:24:00;;;;;;;9.45;6.50;;;;;;;;;;4917682;29;20137;-67
2021/10/08 10:26:28;;;;;;;14.55;6.68;;;;;;;;;;4930318;28;20418;-66
2021/10/08 10:28:55;;;;;;;8.10;6.20;;;;;;;;;;4910258;29;20052;-67
2021/10/08 10:31:22;;;;;;;10.07;7.00;;;;;;;;;;4926985;29;20054;-67
2021/10/08 10:33:48;;;;;;;9.75;7.05;;;;;;;;;;4950917;29;20094;-66
2021/10/08 10:36:30;;;;;;;8.07;6.03;;;;;;;;;;4914526;29;20055;-67
2021/10/08 10:39:15;;;;;;;8.55;6.30;;;;;;;;;;4940979;29;20086;-67
2021/10/08 10:41:46;;;;;;;9.18;6.03;;;;;;;;;;4944219;29;20047;-68
2021/10/08 10:44:18;;;;;;;9.13;6.15;;;;;;;;;;4936082;29;20581;-67
2021/10/08 10:46:51;;;;;;;9.50;6.38;;;;;;;;;;4942031;29;20366;-67
2021/10/08 10:51:59;;;;;;;10.05;7.05;;;;;;;;;;4941212;29;20077;-66
2021/10/08 10:54:34;;;;;;;8.43;6.28;;;;;;;;;;4941869;28;20067;-66
2021/10/08 10:57:06;;;;;;;8.35;7.30;;;;;;;;;;4943904;29;20505;-67
2021/10/08 10:59:38;;;;;;;8.07;6.43;;;;;;;;;;4944455;29;20106;-66
2021/10/08 11:02:09;;;;;;;7.90;6.07;;;;;;;;;;4927264;29;20044;-67
2021/10/08 11:04:37;;;;;;;7.63;6.65;;;;;;;;;;4947244;29;20052;-66
2021/10/08 11:07:08;;;;;;;8.68;6.47;;;;;;;;;;4951783;28;20073;-66
2021/10/08 11:09:36;;;;;;;8.10;6.47;;;;;;;;;;4941969;28;20055;-66
2021/10/08 11:12:30;;;;;;;7.75;6.25;;;;;;;;;;4951533;28;20101;-66
2021/10/08 11:15:17;;;;;;;9.10;7.22;;;;;;;;;;4938634;29;20059;-67
2021/10/08 11:17:45;;;;;;;8.32;6.25;;;;;;;;;;4946505;29;20048;-66
2021/10/08 11:20:30;;;;;;;9.75;7.03;;;;;;;;;;4951930;29;20442;-66
2021/10/08 11:23:00;;;;;;;9.32;6.65;;;;;;;;;;4945860;29;20111;-66
2021/10/08 11:25:30;;;;;;;8.63;6.00;;;;;;;;;;4946469;28;20051;-66
2021/10/08 11:27:57;;;;;;;9.80;6.05;;;;;;;;;;4930817;29;20087;-68
2021/10/08 11:30:26;;;;;;;9.73;5.85;;;;;;;;;;4942260;29;20143;-66
2021/10/08 11:32:55;;;;;;;7.20;5.97;;;;;;;;;;4925980;29;20051;-66
2021/10/08 11:35:29;;;;;;;8.55;5.22;;;;;;;;;;4934593;29;20055;-66
2021/10/08 11:37:56;;;;;;;8.95;6.32;;;;;;;;;;4939938;29;20087;-66
2021/10/08 11:40:27;;;;;;;8.40;5.70;;;;;;;;;;4941999;29;20048;-67
2021/10/08 11:43:05;;;;;;;9.90;5.30;;;;;;;;;;4947887;28;20565;-67
2021/10/08 11:45:35;;;;;;;9.07;5.82;;;;;;;;;;4950027;28;20103;-66
2021/10/08 11:48:14;;;;;;;7.75;6.75;;;;;;;;;;4951511;28;20047;-67
2021/10/08 11:50:46;;;;;;;7.85;6.05;;;;;;;;;;4945791;29;20048;-66
2021/10/08 11:53:12;;;;;;;10.63;5.88;;;;;;;;;;4948339;29;20058;-66
2021/10/08 11:55:59;;;;;;;11.48;6.78;;;;;;;;;;4945759;29;20131;-67
2021/10/08 11:58:31;;;;;;;8.27;6.37;;;;;;;;;;4918567;29;20059;-66
2021/10/08 12:00:58;;;;;;;9.98;6.43;;;;;;;;;;4940113;29;20117;-66
2021/10/08 12:03:25;;;;;;;8.25;6.15;;;;;;;;;;4940407;29;20406;-66
2021/10/08 12:05:56;;;;;;;9.88;6.70;;;;;;;;;;4923325;29;20060;-66
2021/10/08 12:08:32;;;;;;;13.05;7.25;;;;;;;;;;4935075;29;20054;-66
2021/10/08 12:11:04;;;;;;;8.93;6.57;;;;;;;;;;4953580;28;20055;-66
2021/10/08 12:13:45;;;;;;;8.20;6.90;;;;;;;;;;4914531;29;20142;-66
2021/10/08 12:16:14;;;;;;;8.00;6.35;;;;;;;;;;4933425;29;20294;-66
2021/10/08 12:18:51;;;;;;;9.45;6.60;;;;;;;;;;4933310;29;20055;-66
2021/10/08 12:21:24;;;;;;;8.63;6.00;;;;;;;;;;4950600;29;20043;-67
2021/10/08 12:24:05;;;;;;;7.88;6.32;;;;;;;;;;4934367;29;20055;-66
2021/10/08 12:26:34;;;;;;;8.82;6.45;;;;;;;;;;4940083;29;20060;-66
2021/10/08 12:29:06;;;;;;;9.75;6.65;;;;;;;;;;4924219;29;20056;-66
2021/10/08 12:31:55;;;;;;;10.38;6.85;;;;;;;;;;4940467;29;20066;-66
2021/10/08 12:34:41;;;;;;;9.77;6.72;;;;;;;;;;4940679;29;20059;-66
2021/10/08 12:37:11;;;;;;;7.65;6.63;;;;;;;;;;4923029;29;20047;-67
2021/10/08 12:39:40;;;;;;;8.40;6.40;;;;;;;;;;4923925;29;20047;-66
2021/10/08 12:42:17;;;;;;;9.38;6.78;;;;;;;;;;4949722;29;20047;-66
2021/10/08 12:44:50;;;;;;;8.57;6.72;;;;;;;;;;4939924;29;20052;-67
2021/10/08 12:47:27;;;;;;;8.73;6.60;;;;;;;;;;4947313;29;20050;-67
2021/10/08 12:49:55;;;;;;;8.50;6.65;;;;;;;;;;4950208;29;20048;-67
2021/10/08 12:52:41;;;;;;;12.57;7.10;;;;;;;;;;4938959;29;20114;-66
2021/10/08 12:55:21;;;;;;;11.57;7.13;;;;;;;;;;4941662;29;20064;-66
2021/10/08 12:58:11;;;;;;;8.13;6.35;;;;;;;;;;4940050;29;20051;-66
2021/10/08 13:00:48;;;;;;;10.18;6.55;;;;;;;;;;4943622;29;20570;-66
2021/10/08 13:03:34;;;;;;;8.02;6.60;;;;;;;;;;4940794;29;20059;-67
2021/10/08 13:06:02;;;;;;;10.82;7.15;;;;;;;;;;4939888;29;20138;-67
2021/10/08 13:08:32;;;;;;;8.50;6.18;;;;;;;;;;4934081;29;20106;-67
2021/10/08 13:11:09;;;;;;;10.10;6.95;;;;;;;;;;4949741;29;20051;-67
2021/10/08 13:13:47;;;;;;;9.13;6.22;;;;;;;;;;4927963;29;20043;-67
2021/10/08 13:16:28;;;;;;;12.50;7.15;;;;;;;;;;4927980;29;20320;-67
2021/10/08 13:18:55;;;;;;;8.18;5.53;;;;;;;;;;4931174;29;20055;-67
2021/10/08 13:21:22;;;;;;;7.88;6.10;;;;;;;;;;4945716;29;20559;-67
2021/10/08 13:23:51;;;;;;;15.93;5.80;;;;;;;;;;4930701;29;20059;-67
2021/10/08 13:26:19;;;;;;;7.68;5.75;;;;;;;;;;4941867;29;20051;-67
2021/10/08 13:28:46;;;;;;;6.75;5.55;;;;;;;;;;4937217;29;20138;-68
2021/10/08 13:31:13;;;;;;;10.27;5.97;;;;;;;;;;4951341;29;20047;-68
2021/10/08 13:33:41;;;;;;;8.88;6.03;;;;;;;;;;4952758;29;20044;-68
2021/10/08 13:36:10;;;;;;;8.40;6.15;;;;;;;;;;4951556;29;20052;-68
2021/10/08 13:38:37;;;;;;;7.15;5.68;;;;;;;;;;4929412;29;20110;-68
2021/10/08 13:41:04;;;;;;;11.57;6.03;;;;;;;;;;4927529;29;20059;-68
2021/10/08 13:43:32;;;;;;;6.15;5.50;;;;;;;;;;4913620;29;20051;-68
2021/10/08 13:45:59;;;;;;;6.50;5.85;;;;;;;;;;4931008;29;20054;-68
2021/10/08 13:48:26;;;;;;;7.50;5.72;;;;;;;;;;4950669;29;20051;-68
2021/10/08 13:51:09;;;;;;;9.57;6.00;;;;;;;;;;4945315;29;20129;-68
2021/10/08 13:53:40;;;;;;;8.38;5.30;;;;;;;;;;4951724;29;20054;-68
2021/10/08 13:56:07;;;;;;;7.50;5.80;;;;;;;;;;4928995;29;20055;-68
2021/10/08 13:58:34;;;;;;;7.43;6.07;;;;;;;;;;4937539;29;20096;-67
2021/10/08 14:01:01;;;;;;;9.43;6.40;;;;;;;;;;4956044;29;20054;-67
2021/10/08 14:10:49;;;;;;;8.75;6.75;;;;;;;;;;4955877;29;20055;-77
2021/10/08 14:13:16;;;;;;;9.57;6.55;;;;;;;;;;4952861;28;20051;-71
2021/10/08 14:15:42;;;;;;;7.25;5.90;;;;;;;;;;4932470;28;20055;-73
2021/10/08 14:18:09;;;;;;;6.78;6.07;;;;;;;;;;4935831;29;20058;-75
2021/10/08 14:20:36;;;;;;;7.03;5.80;;;;;;;;;;4947958;29;20488;-75
2021/10/08 14:23:03;;;;;;;6.90;5.93;;;;;;;;;;4946659;29;20079;-67
2021/10/08 14:25:30;;;;;;;7.80;6.50;;;;;;;;;;4946134;29;20055;-71
2021/10/08 14:27:57;;;;;;;7.90;6.13;;;;;;;;;;4952523;28;20055;-74
2021/10/08 14:30:25;;;;;;;8.23;6.70;;;;;;;;;;4943796;29;20130;-74
2021/10/08 14:32:51;;;;;;;9.57;6.50;;;;;;;;;;4950592;29;20052;-74
2021/10/08 14:35:18;;;;;;;9.73;7.30;;;;;;;;;;4949710;29;20459;-73
2021/10/08 14:37:45;;;;;;;9.27;6.07;;;;;;;;;;4949895;28;20106;-72
2021/10/08 14:40:12;;;;;;;8.05;6.43;;;;;;;;;;4952625;28;20061;-72
2021/10/08 14:42:40;;;;;;;9.23;7.50;;;;;;;;;;4930437;29;20054;-69
2021/10/08 14:45:07;;;;;;;8.93;7.03;;;;;;;;;;4925517;29;20059;-74
2021/10/08 14:47:34;;;;;;;7.90;6.93;;;;;;;;;;4952377;29;20054;-76
2021/10/08 14:50:01;;;;;;;10.02;7.22;;;;;;;;;;4936937;29;20051;-73
2021/10/08 14:52:29;;;;;;;10.90;8.00;;;;;;;;;;4935367;29;20051;-74
2021/10/08 14:55:06;;;;;;;9.13;7.50;;;;;;;;;;4930367;29;20052;-71